sensor_id;sensor_type;location;lat;lon;timestamp;pressure;altitude;pressure_sealevel;temperature;humidity
40730;BME280;26418;50.070;8.436;2023-03-14T00:02:02;98065.94;;;9.04;100.00
40730;BME280;26418;50.070;8.436;2023-03-14T00:04:27;98074.13;;;9.08;100.00
40730;BME280;26418;50.070;8.436;2023-03-14T00:06:52;98089.53;;;9.07;100.00
40730;BME280;26418;50.070;8.436;2023-03-14T00:09:18;98081.91;;;9.09;100.00
40730;BME280;26418;50.070;8.436;2023-03-14T00:11:43;98081.78;;;9.06;100.00
40730;BME280;26418;50.070;8.436;2023-03-14T00:14:08;98086.94;;;9.11;100.00
40730;BME280;26418;50.070;8.436;2023-03-14T00:16:34;98100.78;;;9.09;100.00
40730;BME280;26418;50.070;8.436;2023-03-14T00:18:59;98087.84;;;9.03;100.00
40730;BME280;26418;50.070;8.436;2023-03-14T00:21:25;98097.63;;;9.07;100.00
40730;BME280;26418;50.070;8.436;2023-03-14T00:23:51;98087.31;;;9.09;100.00
40730;BME280;26418;50.070;8.436;2023-03-14T00:26:18;98089.19;;;9.09;100.00
40730;BME280;26418;50.070;8.436;2023-03-14T00:28:44;98079.88;;;9.06;100.00
40730;BME280;26418;50.070;8.436;2023-03-14T00:31:12;98090.88;;;9.13;100.00
40730;BME280;26418;50.070;8.436;2023-03-14T00:33:38;98082.56;;;9.06;100.00
40730;BME280;26418;50.070;8.436;2023-03-14T00:36:06;98084.38;;;9.15;100.00
40730;BME280;26418;50.070;8.436;2023-03-14T00:38:34;98078.31;;;9.18;100.00
40730;BME280;26418;50.070;8.436;2023-03-14T00:41:03;98079.09;;;9.18;100.00
40730;BME280;26418;50.070;8.436;2023-03-14T00:43:28;98059.63;;;9.12;100.00
40730;BME280;26418;50.070;8.436;2023-03-14T00:45:53;98045.84;;;9.14;100.00
40730;BME280;26418;50.070;8.436;2023-03-14T00:48:19;98046.38;;;9.20;100.00
40730;BME280;26418;50.070;8.436;2023-03-14T00:50:45;98026.38;;;9.21;99.96
40730;BME280;26418;50.070;8.436;2023-03-14T00:53:11;98013.25;;;9.19;99.67
40730;BME280;26418;50.070;8.436;2023-03-14T00:55:40;98014.00;;;9.20;99.20
40730;BME280;26418;50.070;8.436;2023-03-14T00:58:07;97997.28;;;9.14;98.89
40730;BME280;26418;50.070;8.436;2023-03-14T01:00:33;98009.88;;;9.22;98.46
40730;BME280;26418;50.070;8.436;2023-03-14T01:02:58;98020.66;;;9.22;98.35
40730;BME280;26418;50.070;8.436;2023-03-14T01:05:24;98028.41;;;9.24;98.37
40730;BME280;26418;50.070;8.436;2023-03-14T01:07:49;98023.47;;;9.26;98.29
40730;BME280;26418;50.070;8.436;2023-03-14T01:10:15;98036.97;;;9.26;98.51
40730;BME280;26418;50.070;8.436;2023-03-14T01:12:41;98031.22;;;9.27;97.77
40730;BME280;26418;50.070;8.436;2023-03-14T01:15:06;98036.72;;;9.31;97.41
40730;BME280;26418;50.070;8.436;2023-03-14T01:17:32;98041.34;;;9.31;97.20
40730;BME280;26418;50.070;8.436;2023-03-14T01:19:57;98046.03;;;9.34;97.02
40730;BME280;26418;50.070;8.436;2023-03-14T01:22:23;98033.69;;;9.33;96.39
40730;BME280;26418;50.070;8.436;2023-03-14T01:24:48;98036.81;;;9.35;95.98
40730;BME280;26418;50.070;8.436;2023-03-14T01:27:13;98029.97;;;9.37;96.04
40730;BME280;26418;50.070;8.436;2023-03-14T01:29:38;98026.50;;;9.37;95.59
40730;BME280;26418;50.070;8.436;2023-03-14T01:32:04;98030.41;;;9.39;95.67
40730;BME280;26418;50.070;8.436;2023-03-14T01:34:29;98014.47;;;9.34;94.75
40730;BME280;26418;50.070;8.436;2023-03-14T01:36:55;98022.66;;;9.38;94.49
40730;BME280;26418;50.070;8.436;2023-03-14T01:39:20;98013.47;;;9.39;94.61
40730;BME280;26418;50.070;8.436;2023-03-14T01:41:45;98003.78;;;9.38;94.31
40730;BME280;26418;50.070;8.436;2023-03-14T01:44:12;98002.22;;;9.37;94.12
40730;BME280;26418;50.070;8.436;2023-03-14T01:46:42;98000.28;;;9.37;94.13
40730;BME280;26418;50.070;8.436;2023-03-14T01:54:24;97991.53;;;9.28;94.53
40730;BME280;26418;50.070;8.436;2023-03-14T01:59:43;97976.03;;;9.25;94.78
40730;BME280;26418;50.070;8.436;2023-03-14T02:02:12;97976.34;;;9.23;95.11
40730;BME280;26418;50.070;8.436;2023-03-14T02:04:38;97967.03;;;9.21;95.20
40730;BME280;26418;50.070;8.436;2023-03-14T02:07:33;97962.00;;;9.19;95.49
40730;BME280;26418;50.070;8.436;2023-03-14T02:10:01;97941.44;;;9.15;95.68
40730;BME280;26418;50.070;8.436;2023-03-14T02:12:27;97938.19;;;9.21;96.00
40730;BME280;26418;50.070;8.436;2023-03-14T02:14:52;97940.53;;;9.23;96.26
40730;BME280;26418;50.070;8.436;2023-03-14T02:17:18;97936.34;;;9.25;96.62
40730;BME280;26418;50.070;8.436;2023-03-14T02:20:08;97920.16;;;9.25;96.29
40730;BME280;26418;50.070;8.436;2023-03-14T02:22:37;97933.75;;;9.29;95.94
40730;BME280;26418;50.070;8.436;2023-03-14T02:25:48;97922.66;;;9.31;95.70
40730;BME280;26418;50.070;8.436;2023-03-14T02:28:16;97916.44;;;9.30;95.70
40730;BME280;26418;50.070;8.436;2023-03-14T02:30:42;97910.59;;;9.28;95.39
40730;BME280;26418;50.070;8.436;2023-03-14T02:33:13;97911.84;;;9.31;95.44
40730;BME280;26418;50.070;8.436;2023-03-14T02:38:19;97905.00;;;9.33;95.08
40730;BME280;26418;50.070;8.436;2023-03-14T02:40:46;97904.09;;;9.29;95.21
40730;BME280;26418;50.070;8.436;2023-03-14T02:43:12;97912.28;;;9.33;94.82
40730;BME280;26418;50.070;8.436;2023-03-14T02:45:40;97911.50;;;9.32;94.90
40730;BME280;26418;50.070;8.436;2023-03-14T02:48:11;97926.13;;;9.31;95.28
40730;BME280;26418;50.070;8.436;2023-03-14T02:50:38;97917.16;;;9.27;95.17
40730;BME280;26418;50.070;8.436;2023-03-14T02:53:04;97932.75;;;9.34;95.08
40730;BME280;26418;50.070;8.436;2023-03-14T02:55:30;97930.84;;;9.34;95.14
40730;BME280;26418;50.070;8.436;2023-03-14T02:57:55;97921.19;;;9.33;94.41
40730;BME280;26418;50.070;8.436;2023-03-14T03:00:20;97916.13;;;9.32;94.26
40730;BME280;26418;50.070;8.436;2023-03-14T03:02:46;97922.19;;;9.28;94.27
40730;BME280;26418;50.070;8.436;2023-03-14T03:05:11;97928.72;;;9.27;94.33
40730;BME280;26418;50.070;8.436;2023-03-14T03:07:36;97931.88;;;9.30;94.49
40730;BME280;26418;50.070;8.436;2023-03-14T03:10:02;97929.94;;;9.30;94.39
40730;BME280;26418;50.070;8.436;2023-03-14T03:12:28;97938.72;;;9.27;94.74
40730;BME280;26418;50.070;8.436;2023-03-14T03:14:53;97950.28;;;9.27;94.84
40730;BME280;26418;50.070;8.436;2023-03-14T03:17:18;97943.31;;;9.26;95.04
40730;BME280;26418;50.070;8.436;2023-03-14T03:19:44;97927.03;;;9.23;94.91
40730;BME280;26418;50.070;8.436;2023-03-14T03:22:09;97938.59;;;9.23;94.97
40730;BME280;26418;50.070;8.436;2023-03-14T03:24:34;97926.69;;;9.24;95.20
40730;BME280;26418;50.070;8.436;2023-03-14T03:27:00;97925.56;;;9.25;94.85
40730;BME280;26418;50.070;8.436;2023-03-14T03:29:25;97920.97;;;9.26;94.68
40730;BME280;26418;50.070;8.436;2023-03-14T03:31:51;97905.91;;;9.25;94.03
40730;BME280;26418;50.070;8.436;2023-03-14T03:34:16;97901.88;;;9.19;94.12
40730;BME280;26418;50.070;8.436;2023-03-14T03:36:41;97914.00;;;9.25;93.66
40730;BME280;26418;50.070;8.436;2023-03-14T03:39:07;97913.09;;;9.21;93.53
40730;BME280;26418;50.070;8.436;2023-03-14T03:41:32;97920.53;;;9.24;93.57
40730;BME280;26418;50.070;8.436;2023-03-14T03:43:58;97910.50;;;9.24;93.68
40730;BME280;26418;50.070;8.436;2023-03-14T03:46:23;97907.47;;;9.26;93.93
40730;BME280;26418;50.070;8.436;2023-03-14T03:48:54;97890.50;;;9.25;94.03
40730;BME280;26418;50.070;8.436;2023-03-14T03:51:20;97887.03;;;9.25;93.95
40730;BME280;26418;50.070;8.436;2023-03-14T03:53:45;97865.00;;;9.23;93.95
40730;BME280;26418;50.070;8.436;2023-03-14T03:56:10;97871.97;;;9.24;93.70
40730;BME280;26418;50.070;8.436;2023-03-14T03:58:36;97868.47;;;9.23;93.48
40730;BME280;26418;50.070;8.436;2023-03-14T04:01:04;97853.84;;;9.24;93.32
40730;BME280;26418;50.070;8.436;2023-03-14T04:03:29;97846.69;;;9.16;93.32
40730;BME280;26418;50.070;8.436;2023-03-14T04:06:03;97854.97;;;9.23;93.30
40730;BME280;26418;50.070;8.436;2023-03-14T04:08:29;97853.00;;;9.20;93.57
40730;BME280;26418;50.070;8.436;2023-03-14T04:10:57;97845.91;;;9.16;93.83
40730;BME280;26418;50.070;8.436;2023-03-14T04:13:23;97855.59;;;9.17;93.21
40730;BME280;26418;50.070;8.436;2023-03-14T04:15:48;97852.44;;;9.15;93.50
40730;BME280;26418;50.070;8.436;2023-03-14T04:18:13;97856.47;;;9.21;93.17
40730;BME280;26418;50.070;8.436;2023-03-14T04:20:38;97847.59;;;9.20;92.93
40730;BME280;26418;50.070;8.436;2023-03-14T04:23:04;97843.31;;;9.19;92.62
40730;BME280;26418;50.070;8.436;2023-03-14T04:25:29;97857.34;;;9.25;92.48
40730;BME280;26418;50.070;8.436;2023-03-14T04:27:54;97854.66;;;9.25;92.31
40730;BME280;26418;50.070;8.436;2023-03-14T04:30:20;97843.88;;;9.25;92.62
40730;BME280;26418;50.070;8.436;2023-03-14T04:32:45;97851.50;;;9.23;91.93
40730;BME280;26418;50.070;8.436;2023-03-14T04:35:10;97848.47;;;9.24;91.85
40730;BME280;26418;50.070;8.436;2023-03-14T04:37:36;97833.19;;;9.28;91.58
40730;BME280;26418;50.070;8.436;2023-03-14T04:40:01;97845.53;;;9.30;91.47
40730;BME280;26418;50.070;8.436;2023-03-14T04:42:29;97837.09;;;9.31;91.08
40730;BME280;26418;50.070;8.436;2023-03-14T04:44:54;97830.94;;;9.31;90.71
40730;BME280;26418;50.070;8.436;2023-03-14T04:47:19;97838.22;;;9.30;90.68
40730;BME280;26418;50.070;8.436;2023-03-14T04:49:45;97826.13;;;9.24;90.59
40730;BME280;26418;50.070;8.436;2023-03-14T04:52:10;97832.16;;;9.33;90.24
40730;BME280;26418;50.070;8.436;2023-03-14T04:54:35;97828.22;;;9.31;90.02
40730;BME280;26418;50.070;8.436;2023-03-14T04:57:01;97826.31;;;9.31;89.46
40730;BME280;26418;50.070;8.436;2023-03-14T04:59:26;97833.72;;;9.34;89.29
40730;BME280;26418;50.070;8.436;2023-03-14T05:01:51;97820.03;;;9.27;89.42
40730;BME280;26418;50.070;8.436;2023-03-14T05:04:17;97822.50;;;9.32;89.32
40730;BME280;26418;50.070;8.436;2023-03-14T05:06:42;97824.06;;;9.33;88.78
40730;BME280;26418;50.070;8.436;2023-03-14T05:09:07;97817.88;;;9.33;88.83
40730;BME280;26418;50.070;8.436;2023-03-14T05:11:33;97812.81;;;9.31;88.82
40730;BME280;26418;50.070;8.436;2023-03-14T05:13:58;97813.50;;;9.28;88.25
40730;BME280;26418;50.070;8.436;2023-03-14T05:16:23;97818.22;;;9.31;88.42
40730;BME280;26418;50.070;8.436;2023-03-14T05:18:49;97815.06;;;9.29;88.45
40730;BME280;26418;50.070;8.436;2023-03-14T05:21:15;97799.72;;;9.17;88.81
40730;BME280;26418;50.070;8.436;2023-03-14T05:23:40;97815.69;;;9.22;88.75
40730;BME280;26418;50.070;8.436;2023-03-14T05:26:06;97806.13;;;9.25;88.28
40730;BME280;26418;50.070;8.436;2023-03-14T05:28:31;97806.13;;;9.25;88.61
40730;BME280;26418;50.070;8.436;2023-03-14T05:30:56;97823.41;;;9.24;88.41
40730;BME280;26418;50.070;8.436;2023-03-14T05:33:22;97814.53;;;9.23;88.45
40730;BME280;26418;50.070;8.436;2023-03-14T05:35:47;97818.78;;;9.24;88.30
40730;BME280;26418;50.070;8.436;2023-03-14T05:38:12;97822.28;;;9.25;88.35
40730;BME280;26418;50.070;8.436;2023-03-14T05:40:38;97810.03;;;9.27;88.24
40730;BME280;26418;50.070;8.436;2023-03-14T05:43:03;97806.66;;;9.31;87.91
40730;BME280;26418;50.070;8.436;2023-03-14T05:45:28;97806.31;;;9.32;88.20
40730;BME280;26418;50.070;8.436;2023-03-14T05:47:54;97795.50;;;9.32;87.81
40730;BME280;26418;50.070;8.436;2023-03-14T05:50:19;97788.63;;;9.35;87.48
40730;BME280;26418;50.070;8.436;2023-03-14T05:52:44;97785.50;;;9.33;88.00
40730;BME280;26418;50.070;8.436;2023-03-14T05:55:10;97773.34;;;9.39;89.62
40730;BME280;26418;50.070;8.436;2023-03-14T05:57:35;97771.47;;;9.55;89.29
40730;BME280;26418;50.070;8.436;2023-03-14T06:00:00;97768.34;;;9.69;87.91
40730;BME280;26418;50.070;8.436;2023-03-14T06:02:26;97765.47;;;9.78;87.20
40730;BME280;26418;50.070;8.436;2023-03-14T06:04:52;97761.03;;;9.86;86.74
40730;BME280;26418;50.070;8.436;2023-03-14T06:07:17;97749.00;;;9.83;85.25
40730;BME280;26418;50.070;8.436;2023-03-14T06:09:43;97763.91;;;9.93;85.33
40730;BME280;26418;50.070;8.436;2023-03-14T06:12:08;97770.25;;;10.01;84.65
40730;BME280;26418;50.070;8.436;2023-03-14T06:14:33;97770.16;;;9.97;83.79
40730;BME280;26418;50.070;8.436;2023-03-14T06:16:59;97756.69;;;9.81;83.68
40730;BME280;26418;50.070;8.436;2023-03-14T06:19:25;97770.94;;;9.82;84.15
40730;BME280;26418;50.070;8.436;2023-03-14T06:21:50;97765.66;;;9.69;84.90
40730;BME280;26418;50.070;8.436;2023-03-14T06:24:16;97767.72;;;9.60;85.65
40730;BME280;26418;50.070;8.436;2023-03-14T06:26:42;97763.59;;;9.50;86.24
40730;BME280;26418;50.070;8.436;2023-03-14T06:29:07;97762.81;;;9.50;87.44
40730;BME280;26418;50.070;8.436;2023-03-14T06:31:33;97752.19;;;9.41;87.14
40730;BME280;26418;50.070;8.436;2023-03-14T06:33:58;97759.94;;;9.42;87.62
40730;BME280;26418;50.070;8.436;2023-03-14T06:36:24;97763.31;;;9.39;87.74
40730;BME280;26418;50.070;8.436;2023-03-14T06:38:49;97767.78;;;9.32;87.86
40730;BME280;26418;50.070;8.436;2023-03-14T06:41:15;97772.38;;;9.31;87.33
40730;BME280;26418;50.070;8.436;2023-03-14T06:43:41;97770.16;;;9.21;87.89
40730;BME280;26418;50.070;8.436;2023-03-14T06:46:06;97772.63;;;9.26;87.87
40730;BME280;26418;50.070;8.436;2023-03-14T06:48:31;97771.16;;;9.28;87.64
40730;BME280;26418;50.070;8.436;2023-03-14T06:50:57;97778.44;;;9.28;87.87
40730;BME280;26418;50.070;8.436;2023-03-14T06:53:22;97780.25;;;9.24;87.91
40730;BME280;26418;50.070;8.436;2023-03-14T06:55:47;97775.66;;;9.24;87.88
40730;BME280;26418;50.070;8.436;2023-03-14T06:58:13;97771.50;;;9.27;87.58
40730;BME280;26418;50.070;8.436;2023-03-14T07:00:38;97778.44;;;9.28;87.68
40730;BME280;26418;50.070;8.436;2023-03-14T07:03:03;97777.75;;;9.31;87.48
40730;BME280;26418;50.070;8.436;2023-03-14T07:05:29;97773.94;;;9.32;87.53
40730;BME280;26418;50.070;8.436;2023-03-14T07:07:54;97772.44;;;9.35;87.35
40730;BME280;26418;50.070;8.436;2023-03-14T07:10:19;97769.06;;;9.38;87.37
40730;BME280;26418;50.070;8.436;2023-03-14T07:12:45;97758.38;;;9.41;87.17
40730;BME280;26418;50.070;8.436;2023-03-14T07:15:10;97770.38;;;9.44;87.19
40730;BME280;26418;50.070;8.436;2023-03-14T07:17:36;97765.09;;;9.48;86.71
40730;BME280;26418;50.070;8.436;2023-03-14T07:20:01;97762.03;;;9.49;86.66
40730;BME280;26418;50.070;8.436;2023-03-14T07:22:29;97762.47;;;9.51;86.63
40730;BME280;26418;50.070;8.436;2023-03-14T07:24:54;97757.16;;;9.55;86.14
40730;BME280;26418;50.070;8.436;2023-03-14T07:27:19;97761.78;;;9.54;86.31
40730;BME280;26418;50.070;8.436;2023-03-14T07:29:45;97766.84;;;9.56;86.82
40730;BME280;26418;50.070;8.436;2023-03-14T07:32:10;97765.34;;;9.58;86.51
40730;BME280;26418;50.070;8.436;2023-03-14T07:34:40;97771.63;;;9.63;86.02
40730;BME280;26418;50.070;8.436;2023-03-14T07:37:05;97771.63;;;9.63;86.24
40730;BME280;26418;50.070;8.436;2023-03-14T07:39:30;97763.91;;;9.61;86.40
40730;BME280;26418;50.070;8.436;2023-03-14T07:41:56;97763.19;;;9.64;86.52
40730;BME280;26418;50.070;8.436;2023-03-14T07:44:21;97769.56;;;9.72;86.72
40730;BME280;26418;50.070;8.436;2023-03-14T07:46:46;97767.19;;;9.70;87.00
40730;BME280;26418;50.070;8.436;2023-03-14T07:49:11;97769.88;;;9.70;87.26
40730;BME280;26418;50.070;8.436;2023-03-14T07:51:37;97773.75;;;9.69;87.17
40730;BME280;26418;50.070;8.436;2023-03-14T07:54:02;97775.47;;;9.78;87.07
40730;BME280;26418;50.070;8.436;2023-03-14T07:56:27;97774.41;;;9.82;86.78
40730;BME280;26418;50.070;8.436;2023-03-14T07:58:53;97776.44;;;9.85;86.95
40730;BME280;26418;50.070;8.436;2023-03-14T08:01:18;97763.53;;;9.79;86.55
40730;BME280;26418;50.070;8.436;2023-03-14T08:03:43;97773.38;;;9.87;86.65
40730;BME280;26418;50.070;8.436;2023-03-14T08:06:09;97777.56;;;9.84;86.67
40730;BME280;26418;50.070;8.436;2023-03-14T08:08:34;97774.78;;;9.81;86.66
40730;BME280;26418;50.070;8.436;2023-03-14T08:11:06;97769.00;;;9.82;87.16
40730;BME280;26418;50.070;8.436;2023-03-14T08:13:34;97781.06;;;9.85;86.76
40730;BME280;26418;50.070;8.436;2023-03-14T08:15:59;97783.41;;;9.86;86.71
40730;BME280;26418;50.070;8.436;2023-03-14T08:18:24;97780.34;;;9.88;86.74
40730;BME280;26418;50.070;8.436;2023-03-14T08:20:50;97767.56;;;9.85;87.04
40730;BME280;26418;50.070;8.436;2023-03-14T08:23:15;97773.03;;;9.88;86.87
40730;BME280;26418;50.070;8.436;2023-03-14T08:25:40;97769.22;;;9.89;87.03
40730;BME280;26418;50.070;8.436;2023-03-14T08:28:06;97779.22;;;9.89;87.23
40730;BME280;26418;50.070;8.436;2023-03-14T08:30:31;97766.16;;;9.91;86.98
40730;BME280;26418;50.070;8.436;2023-03-14T08:32:57;97775.38;;;9.90;87.05
40730;BME280;26418;50.070;8.436;2023-03-14T08:35:23;97777.81;;;9.95;87.02
40730;BME280;26418;50.070;8.436;2023-03-14T08:37:49;97772.59;;;10.02;86.91
40730;BME280;26418;50.070;8.436;2023-03-14T08:40:14;97775.88;;;10.12;86.80
40730;BME280;26418;50.070;8.436;2023-03-14T08:42:42;97780.84;;;10.26;87.00
40730;BME280;26418;50.070;8.436;2023-03-14T08:45:08;97776.66;;;10.44;85.84
40730;BME280;26418;50.070;8.436;2023-03-14T08:47:35;97770.94;;;10.65;85.04
40730;BME280;26418;50.070;8.436;2023-03-14T08:50:00;97762.22;;;10.72;83.77
40730;BME280;26418;50.070;8.436;2023-03-14T08:52:26;97775.44;;;10.77;82.94
40730;BME280;26418;50.070;8.436;2023-03-14T08:54:51;97774.38;;;10.82;83.15
40730;BME280;26418;50.070;8.436;2023-03-14T08:57:16;97769.66;;;10.79;82.90
40730;BME280;26418;50.070;8.436;2023-03-14T08:59:42;97776.78;;;10.87;83.09
40730;BME280;26418;50.070;8.436;2023-03-14T09:02:10;97784.13;;;11.06;84.18
40730;BME280;26418;50.070;8.436;2023-03-14T09:04:36;97770.88;;;11.21;82.30
40730;BME280;26418;50.070;8.436;2023-03-14T09:07:01;97774.34;;;11.41;80.53
40730;BME280;26418;50.070;8.436;2023-03-14T09:09:27;97776.22;;;11.60;78.81
40730;BME280;26418;50.070;8.436;2023-03-14T09:11:52;97775.09;;;11.84;78.04
40730;BME280;26418;50.070;8.436;2023-03-14T09:14:18;97765.84;;;11.85;76.82
40730;BME280;26418;50.070;8.436;2023-03-14T09:16:43;97771.78;;;11.94;77.54
40730;BME280;26418;50.070;8.436;2023-03-14T09:19:09;97778.44;;;11.97;77.44
40730;BME280;26418;50.070;8.436;2023-03-14T09:21:34;97780.44;;;12.00;76.86
40730;BME280;26418;50.070;8.436;2023-03-14T09:23:59;97769.38;;;11.89;76.08
40730;BME280;26418;50.070;8.436;2023-03-14T09:26:25;97793.03;;;11.92;76.13
40730;BME280;26418;50.070;8.436;2023-03-14T09:28:50;97790.88;;;11.78;77.04
40730;BME280;26418;50.070;8.436;2023-03-14T09:31:15;97801.53;;;11.68;77.87
40730;BME280;26418;50.070;8.436;2023-03-14T09:33:41;97809.78;;;11.55;78.51
40730;BME280;26418;50.070;8.436;2023-03-14T09:36:06;97788.88;;;11.32;78.57
40730;BME280;26418;50.070;8.436;2023-03-14T09:38:33;97795.44;;;11.31;79.19
40730;BME280;26418;50.070;8.436;2023-03-14T09:41:00;97802.06;;;11.34;79.43
40730;BME280;26418;50.070;8.436;2023-03-14T09:43:29;97809.69;;;11.28;80.01
40730;BME280;26418;50.070;8.436;2023-03-14T09:45:55;97813.53;;;11.27;79.64
40730;BME280;26418;50.070;8.436;2023-03-14T09:48:25;97810.09;;;11.30;80.17
40730;BME280;26418;50.070;8.436;2023-03-14T09:50:54;97804.06;;;11.37;79.98
40730;BME280;26418;50.070;8.436;2023-03-14T09:53:44;97802.91;;;11.58;79.71
40730;BME280;26418;50.070;8.436;2023-03-14T09:56:19;97800.72;;;11.67;78.72
40730;BME280;26418;50.070;8.436;2023-03-14T09:58:50;97803.84;;;11.69;77.58
40730;BME280;26418;50.070;8.436;2023-03-14T10:01:22;97797.25;;;11.67;77.74
40730;BME280;26418;50.070;8.436;2023-03-14T10:03:50;97801.56;;;11.71;77.84
40730;BME280;26418;50.070;8.436;2023-03-14T10:06:19;97794.59;;;11.70;77.20
40730;BME280;26418;50.070;8.436;2023-03-14T10:08:44;97790.25;;;11.66;77.55
40730;BME280;26418;50.070;8.436;2023-03-14T10:11:17;97792.13;;;11.61;78.00
40730;BME280;26418;50.070;8.436;2023-03-14T10:16:30;97791.97;;;11.54;77.85
40730;BME280;26418;50.070;8.436;2023-03-14T10:19:02;97786.88;;;11.49;77.50
40730;BME280;26418;50.070;8.436;2023-03-14T10:21:30;97783.34;;;11.45;78.40
40730;BME280;26418;50.070;8.436;2023-03-14T10:24:22;97782.47;;;11.41;78.96
40730;BME280;26418;50.070;8.436;2023-03-14T10:26:57;97787.09;;;11.40;80.10
40730;BME280;26418;50.070;8.436;2023-03-14T10:29:23;97779.25;;;11.35;80.64
40730;BME280;26418;50.070;8.436;2023-03-14T10:34:24;97777.50;;;11.23;81.45
40730;BME280;26418;50.070;8.436;2023-03-14T10:36:58;97789.97;;;11.28;81.60
40730;BME280;26418;50.070;8.436;2023-03-14T10:39:31;97791.47;;;11.25;82.20
40730;BME280;26418;50.070;8.436;2023-03-14T10:42:14;97793.31;;;11.21;82.62
40730;BME280;26418;50.070;8.436;2023-03-14T10:44:41;97796.31;;;11.16;82.86
40730;BME280;26418;50.070;8.436;2023-03-14T10:47:18;97794.31;;;11.13;83.65
40730;BME280;26418;50.070;8.436;2023-03-14T10:49:44;97792.31;;;11.10;83.83
40730;BME280;26418;50.070;8.436;2023-03-14T10:52:19;97784.34;;;10.97;84.44
40730;BME280;26418;50.070;8.436;2023-03-14T10:54:47;97794.03;;;10.98;84.95
40730;BME280;26418;50.070;8.436;2023-03-14T10:57:14;97798.59;;;10.94;85.77
40730;BME280;26418;50.070;8.436;2023-03-14T10:59:41;97795.63;;;10.83;86.94
40730;BME280;26418;50.070;8.436;2023-03-14T11:07:45;97793.50;;;10.73;88.42
40730;BME280;26418;50.070;8.436;2023-03-14T11:10:29;97796.28;;;10.77;88.04
40730;BME280;26418;50.070;8.436;2023-03-14T11:13:15;97800.81;;;10.73;88.46
40730;BME280;26418;50.070;8.436;2023-03-14T11:24:10;97809.47;;;10.62;90.23
40730;BME280;26418;50.070;8.436;2023-03-14T11:26:50;97805.38;;;10.68;90.36
40730;BME280;26418;50.070;8.436;2023-03-14T11:32:10;97800.75;;;10.69;90.15
40730;BME280;26418;50.070;8.436;2023-03-14T11:34:51;97806.97;;;10.69;90.34
40730;BME280;26418;50.070;8.436;2023-03-14T11:37:23;97802.25;;;10.66;91.04
40730;BME280;26418;50.070;8.436;2023-03-14T11:42:42;97810.59;;;10.77;91.60
40730;BME280;26418;50.070;8.436;2023-03-14T11:45:22;97807.94;;;10.81;92.28
40730;BME280;26418;50.070;8.436;2023-03-14T11:48:29;97821.28;;;10.90;92.28
40730;BME280;26418;50.070;8.436;2023-03-14T11:51:02;97821.00;;;10.95;91.61
40730;BME280;26418;50.070;8.436;2023-03-14T11:53:45;97835.38;;;10.99;91.86
40730;BME280;26418;50.070;8.436;2023-03-14T11:56:22;97831.66;;;10.88;93.63
40730;BME280;26418;50.070;8.436;2023-03-14T11:58:58;97859.00;;;10.66;95.26
40730;BME280;26418;50.070;8.436;2023-03-14T12:01:32;97960.00;;;10.58;96.12
40730;BME280;26418;50.070;8.436;2023-03-14T12:04:13;97943.47;;;9.87;92.30
40730;BME280;26418;50.070;8.436;2023-03-14T12:06:47;97949.84;;;9.66;86.33
40730;BME280;26418;50.070;8.436;2023-03-14T12:09:14;97951.25;;;9.48;84.61
40730;BME280;26418;50.070;8.436;2023-03-14T12:11:48;97968.72;;;9.25;83.24
40730;BME280;26418;50.070;8.436;2023-03-14T12:16:48;97995.25;;;8.99;86.24
40730;BME280;26418;50.070;8.436;2023-03-14T12:21:55;98011.88;;;9.01;85.44
40730;BME280;26418;50.070;8.436;2023-03-14T12:24:34;98024.47;;;8.96;85.55
40730;BME280;26418;50.070;8.436;2023-03-14T12:27:03;98033.47;;;9.01;86.31
40730;BME280;26418;50.070;8.436;2023-03-14T12:29:28;98043.34;;;9.09;85.80
40730;BME280;26418;50.070;8.436;2023-03-14T12:34:33;98031.22;;;9.27;83.94
40730;BME280;26418;50.070;8.436;2023-03-14T12:37:44;98057.81;;;9.54;84.76
40730;BME280;26418;50.070;8.436;2023-03-14T12:40:03;98058.03;;;9.73;83.72
40730;BME280;26418;50.070;8.436;2023-03-14T12:42:57;98083.31;;;9.94;81.02
40730;BME280;26418;50.070;8.436;2023-03-14T12:45:29;98103.25;;;9.77;76.55
40730;BME280;26418;50.070;8.436;2023-03-14T12:48:16;98102.94;;;9.53;77.13
40730;BME280;26418;50.070;8.436;2023-03-14T12:50:46;98127.09;;;9.50;77.34
40730;BME280;26418;50.070;8.436;2023-03-14T12:56:21;98139.69;;;9.33;77.04
40730;BME280;26418;50.070;8.436;2023-03-14T13:01:22;98156.56;;;9.42;77.34
40730;BME280;26418;50.070;8.436;2023-03-14T13:03:51;98166.88;;;9.28;78.14
40730;BME280;26418;50.070;8.436;2023-03-14T13:09:54;98180.34;;;9.16;79.81
40730;BME280;26418;50.070;8.436;2023-03-14T13:12:27;98194.81;;;9.11;80.22
40730;BME280;26418;50.070;8.436;2023-03-14T13:14:57;98215.47;;;9.07;76.05
40730;BME280;26418;50.070;8.436;2023-03-14T13:17:30;98218.97;;;9.07;76.58
40730;BME280;26418;50.070;8.436;2023-03-14T13:19:57;98240.34;;;9.12;76.11
40730;BME280;26418;50.070;8.436;2023-03-14T13:22:27;98240.91;;;9.18;75.87
40730;BME280;26418;50.070;8.436;2023-03-14T13:25:05;98243.66;;;9.31;75.84
40730;BME280;26418;50.070;8.436;2023-03-14T13:27:33;98245.25;;;9.32;75.09
40730;BME280;26418;50.070;8.436;2023-03-14T13:32:41;98259.41;;;9.41;72.31
40730;BME280;26418;50.070;8.436;2023-03-14T13:35:28;98260.34;;;9.45;71.45
40730;BME280;26418;50.070;8.436;2023-03-14T13:38:01;98264.09;;;9.65;73.74
40730;BME280;26418;50.070;8.436;2023-03-14T13:40:31;98267.81;;;9.85;74.17
40730;BME280;26418;50.070;8.436;2023-03-14T13:43:11;98278.53;;;10.31;71.78
40730;BME280;26418;50.070;8.436;2023-03-14T13:45:49;98296.31;;;10.57;69.28
40730;BME280;26418;50.070;8.436;2023-03-14T13:48:15;98307.59;;;10.59;68.15
40730;BME280;26418;50.070;8.436;2023-03-14T13:50:55;98324.03;;;10.42;68.99
40730;BME280;26418;50.070;8.436;2023-03-14T13:53:22;98376.59;;;10.32;70.51
40730;BME280;26418;50.070;8.436;2023-03-14T13:55:47;98370.19;;;9.90;70.74
40730;BME280;26418;50.070;8.436;2023-03-14T13:58:26;98393.06;;;9.59;75.46
40730;BME280;26418;50.070;8.436;2023-03-14T14:01:04;98385.31;;;9.16;76.71
40730;BME280;26418;50.070;8.436;2023-03-14T14:03:32;98423.78;;;8.74;78.66
40730;BME280;26418;50.070;8.436;2023-03-14T14:05:58;98416.34;;;8.32;80.45
40730;BME280;26418;50.070;8.436;2023-03-14T14:08:25;98420.00;;;8.18;82.62